sensor_id;sensor_type;location;lat;lon;timestamp;P1;durP1;ratioP1;P2;durP2;ratioP2
11839;SDS011;5979;50.800;4.904;2023-08-06T00:00:26;1.85;;;1.50;;
11839;SDS011;5979;50.800;4.904;2023-08-06T00:02:52;1.58;;;1.48;;
11839;SDS011;5979;50.800;4.904;2023-08-06T00:05:18;2.83;;;1.25;;
11839;SDS011;5979;50.800;4.904;2023-08-06T00:07:45;1.50;;;1.40;;
11839;SDS011;5979;50.800;4.904;2023-08-06T00:10:14;1.73;;;1.50;;
11839;SDS011;5979;50.800;4.904;2023-08-06T00:12:40;1.52;;;1.35;;
11839;SDS011;5979;50.800;4.904;2023-08-06T00:15:06;2.08;;;1.20;;
11839;SDS011;5979;50.800;4.904;2023-08-06T00:17:33;2.30;;;1.30;;
11839;SDS011;5979;50.800;4.904;2023-08-06T00:19:59;1.20;;;1.20;;
11839;SDS011;5979;50.800;4.904;2023-08-06T00:22:30;2.10;;;1.17;;
11839;SDS011;5979;50.800;4.904;2023-08-06T00:24:59;1.20;;;1.08;;
11839;SDS011;5979;50.800;4.904;2023-08-06T00:27:25;1.30;;;0.98;;
11839;SDS011;5979;50.800;4.904;2023-08-06T00:29:51;1.85;;;1.13;;
11839;SDS011;5979;50.800;4.904;2023-08-06T00:32:17;1.20;;;1.13;;
11839;SDS011;5979;50.800;4.904;2023-08-06T00:34:43;1.67;;;0.95;;
11839;SDS011;5979;50.800;4.904;2023-08-06T00:37:09;1.77;;;1.45;;
11839;SDS011;5979;50.800;4.904;2023-08-06T00:39:34;2.90;;;1.40;;
11839;SDS011;5979;50.800;4.904;2023-08-06T00:42:00;1.17;;;1.02;;
11839;SDS011;5979;50.800;4.904;2023-08-06T00:44:26;1.08;;;1.08;;
11839;SDS011;5979;50.800;4.904;2023-08-06T00:46:51;1.90;;;1.00;;
11839;SDS011;5979;50.800;4.904;2023-08-06T00:49:17;0.90;;;0.90;;
11839;SDS011;5979;50.800;4.904;2023-08-06T00:51:43;1.50;;;0.93;;
11839;SDS011;5979;50.800;4.904;2023-08-06T00:54:09;2.67;;;1.13;;
11839;SDS011;5979;50.800;4.904;2023-08-06T00:56:35;1.42;;;0.80;;
11839;SDS011;5979;50.800;4.904;2023-08-06T00:59:03;1.92;;;1.02;;
11839;SDS011;5979;50.800;4.904;2023-08-06T01:01:30;0.95;;;0.95;;
11839;SDS011;5979;50.800;4.904;2023-08-06T01:03:56;1.60;;;0.80;;
11839;SDS011;5979;50.800;4.904;2023-08-06T01:06:23;3.40;;;0.77;;
11839;SDS011;5979;50.800;4.904;2023-08-06T01:13:08;0.65;;;0.65;;
11839;SDS011;5979;50.800;4.904;2023-08-06T01:15:22;1.58;;;1.15;;
11839;SDS011;5979;50.800;4.904;2023-08-06T01:17:53;0.90;;;0.90;;
11839;SDS011;5979;50.800;4.904;2023-08-06T01:20:19;1.45;;;0.70;;
11839;SDS011;5979;50.800;4.904;2023-08-06T01:22:44;1.65;;;1.25;;
11839;SDS011;5979;50.800;4.904;2023-08-06T01:25:10;1.25;;;1.17;;
11839;SDS011;5979;50.800;4.904;2023-08-06T01:27:47;1.17;;;1.08;;
11839;SDS011;5979;50.800;4.904;2023-08-06T01:30:27;0.90;;;0.90;;
11839;SDS011;5979;50.800;4.904;2023-08-06T01:32:58;1.83;;;1.20;;
11839;SDS011;5979;50.800;4.904;2023-08-06T01:35:28;2.50;;;1.30;;
11839;SDS011;5979;50.800;4.904;2023-08-06T01:37:55;1.83;;;1.40;;
11839;SDS011;5979;50.800;4.904;2023-08-06T01:40:21;2.50;;;1.73;;
11839;SDS011;5979;50.800;4.904;2023-08-06T01:42:47;1.48;;;1.40;;
11839;SDS011;5979;50.800;4.904;2023-08-06T01:45:13;2.05;;;1.95;;
11839;SDS011;5979;50.800;4.904;2023-08-06T01:47:39;2.20;;;1.67;;
11839;SDS011;5979;50.800;4.904;2023-08-06T01:50:04;4.65;;;1.83;;
11839;SDS011;5979;50.800;4.904;2023-08-06T01:52:30;2.17;;;1.98;;
11839;SDS011;5979;50.800;4.904;2023-08-06T01:54:56;2.00;;;1.90;;
11839;SDS011;5979;50.800;4.904;2023-08-06T01:57:22;6.13;;;2.08;;
11839;SDS011;5979;50.800;4.904;2023-08-06T01:59:47;2.45;;;1.95;;
11839;SDS011;5979;50.800;4.904;2023-08-06T02:02:13;2.03;;;1.83;;
11839;SDS011;5979;50.800;4.904;2023-08-06T02:04:38;1.98;;;1.48;;
11839;SDS011;5979;50.800;4.904;2023-08-06T02:07:04;1.70;;;1.70;;
11839;SDS011;5979;50.800;4.904;2023-08-06T02:09:30;2.20;;;2.10;;
11839;SDS011;5979;50.800;4.904;2023-08-06T02:11:56;2.50;;;2.33;;
11839;SDS011;5979;50.800;4.904;2023-08-06T02:14:21;2.75;;;2.58;;
11839;SDS011;5979;50.800;4.904;2023-08-06T02:16:47;3.10;;;2.90;;
11839;SDS011;5979;50.800;4.904;2023-08-06T02:19:12;3.60;;;2.80;;
11839;SDS011;5979;50.800;4.904;2023-08-06T02:21:38;4.63;;;4.22;;
11839;SDS011;5979;50.800;4.904;2023-08-06T02:24:04;4.18;;;3.85;;
11839;SDS011;5979;50.800;4.904;2023-08-06T02:26:29;5.53;;;4.07;;
11839;SDS011;5979;50.800;4.904;2023-08-06T02:28:55;7.72;;;4.53;;
11839;SDS011;5979;50.800;4.904;2023-08-06T02:31:21;5.28;;;4.78;;
11839;SDS011;5979;50.800;4.904;2023-08-06T02:33:46;5.05;;;4.25;;
11839;SDS011;5979;50.800;4.904;2023-08-06T02:36:12;5.70;;;4.50;;
11839;SDS011;5979;50.800;4.904;2023-08-06T02:38:38;3.92;;;3.60;;
11839;SDS011;5979;50.800;4.904;2023-08-06T02:41:03;3.50;;;3.20;;
11839;SDS011;5979;50.800;4.904;2023-08-06T02:43:29;4.47;;;4.18;;
11839;SDS011;5979;50.800;4.904;2023-08-06T02:45:58;4.88;;;4.38;;
11839;SDS011;5979;50.800;4.904;2023-08-06T02:48:25;4.68;;;3.85;;
11839;SDS011;5979;50.800;4.904;2023-08-06T02:50:50;6.28;;;4.30;;
11839;SDS011;5979;50.800;4.904;2023-08-06T02:53:16;4.18;;;3.78;;
11839;SDS011;5979;50.800;4.904;2023-08-06T02:55:48;3.88;;;3.50;;
11839;SDS011;5979;50.800;4.904;2023-08-06T02:58:14;4.78;;;3.30;;
11839;SDS011;5979;50.800;4.904;2023-08-06T03:00:40;3.55;;;3.28;;
11839;SDS011;5979;50.800;4.904;2023-08-06T03:03:06;4.50;;;3.88;;
11839;SDS011;5979;50.800;4.904;2023-08-06T03:05:31;3.30;;;3.00;;
11839;SDS011;5979;50.800;4.904;2023-08-06T03:07:57;3.88;;;3.47;;
11839;SDS011;5979;50.800;4.904;2023-08-06T03:10:23;3.95;;;3.20;;
11839;SDS011;5979;50.800;4.904;2023-08-06T03:12:48;4.65;;;3.55;;
11839;SDS011;5979;50.800;4.904;2023-08-06T03:15:14;3.53;;;3.22;;
11839;SDS011;5979;50.800;4.904;2023-08-06T03:17:40;4.60;;;2.75;;
11839;SDS011;5979;50.800;4.904;2023-08-06T03:20:05;5.50;;;3.45;;
11839;SDS011;5979;50.800;4.904;2023-08-06T03:22:31;3.63;;;3.33;;
11839;SDS011;5979;50.800;4.904;2023-08-06T03:24:57;3.75;;;2.92;;
11839;SDS011;5979;50.800;4.904;2023-08-06T03:27:23;3.42;;;2.80;;
11839;SDS011;5979;50.800;4.904;2023-08-06T03:29:49;3.45;;;3.20;;
11839;SDS011;5979;50.800;4.904;2023-08-06T03:32:17;3.92;;;2.72;;
11839;SDS011;5979;50.800;4.904;2023-08-06T03:34:43;3.83;;;3.50;;
11839;SDS011;5979;50.800;4.904;2023-08-06T03:37:09;3.47;;;3.00;;
11839;SDS011;5979;50.800;4.904;2023-08-06T03:39:34;3.95;;;3.17;;
11839;SDS011;5979;50.800;4.904;2023-08-06T03:42:00;2.60;;;2.40;;
11839;SDS011;5979;50.800;4.904;2023-08-06T03:44:26;2.90;;;2.60;;
11839;SDS011;5979;50.800;4.904;2023-08-06T03:46:53;2.78;;;2.55;;
11839;SDS011;5979;50.800;4.904;2023-08-06T03:49:18;3.65;;;2.42;;
11839;SDS011;5979;50.800;4.904;2023-08-06T03:51:44;5.38;;;2.78;;
11839;SDS011;5979;50.800;4.904;2023-08-06T03:54:11;2.95;;;2.60;;
11839;SDS011;5979;50.800;4.904;2023-08-06T03:56:37;3.60;;;2.75;;
11839;SDS011;5979;50.800;4.904;2023-08-06T03:59:03;3.38;;;2.35;;
11839;SDS011;5979;50.800;4.904;2023-08-06T04:01:29;3.75;;;2.30;;
11839;SDS011;5979;50.800;4.904;2023-08-06T04:03:55;3.15;;;2.83;;
11839;SDS011;5979;50.800;4.904;2023-08-06T04:06:20;3.10;;;2.60;;
11839;SDS011;5979;50.800;4.904;2023-08-06T04:08:46;5.18;;;2.83;;
11839;SDS011;5979;50.800;4.904;2023-08-06T04:11:12;3.10;;;2.90;;
11839;SDS011;5979;50.800;4.904;2023-08-06T04:13:38;6.28;;;2.92;;
11839;SDS011;5979;50.800;4.904;2023-08-06T04:16:06;5.80;;;2.67;;
11839;SDS011;5979;50.800;4.904;2023-08-06T04:18:32;3.42;;;3.08;;
11839;SDS011;5979;50.800;4.904;2023-08-06T04:20:58;4.88;;;3.70;;
11839;SDS011;5979;50.800;4.904;2023-08-06T04:23:23;4.00;;;3.70;;
11839;SDS011;5979;50.800;4.904;2023-08-06T04:25:49;5.68;;;3.95;;
11839;SDS011;5979;50.800;4.904;2023-08-06T04:28:15;4.80;;;4.18;;
11839;SDS011;5979;50.800;4.904;2023-08-06T04:30:41;5.15;;;4.75;;
11839;SDS011;5979;50.800;4.904;2023-08-06T04:33:06;6.18;;;5.57;;
11839;SDS011;5979;50.800;4.904;2023-08-06T04:35:32;10.95;;;6.57;;
11839;SDS011;5979;50.800;4.904;2023-08-06T04:37:58;7.63;;;6.50;;
11839;SDS011;5979;50.800;4.904;2023-08-06T04:40:23;10.15;;;7.63;;
11839;SDS011;5979;50.800;4.904;2023-08-06T04:42:49;10.13;;;7.63;;
11839;SDS011;5979;50.800;4.904;2023-08-06T04:45:15;10.13;;;7.72;;
11839;SDS011;5979;50.800;4.904;2023-08-06T04:47:40;12.18;;;8.48;;
11839;SDS011;5979;50.800;4.904;2023-08-06T04:50:06;14.95;;;10.15;;
11839;SDS011;5979;50.800;4.904;2023-08-06T04:52:32;12.88;;;9.32;;
11839;SDS011;5979;50.800;4.904;2023-08-06T04:54:57;14.18;;;10.27;;
11839;SDS011;5979;50.800;4.904;2023-08-06T04:57:23;14.75;;;9.55;;
11839;SDS011;5979;50.800;4.904;2023-08-06T04:59:49;9.57;;;8.60;;
11839;SDS011;5979;50.800;4.904;2023-08-06T05:02:15;10.88;;;8.38;;
11839;SDS011;5979;50.800;4.904;2023-08-06T05:04:40;10.00;;;8.10;;
11839;SDS011;5979;50.800;4.904;2023-08-06T05:07:06;7.88;;;6.57;;
11839;SDS011;5979;50.800;4.904;2023-08-06T05:09:32;4.78;;;4.38;;
11839;SDS011;5979;50.800;4.904;2023-08-06T05:12:00;2.85;;;2.65;;
11839;SDS011;5979;50.800;4.904;2023-08-06T05:14:26;2.05;;;1.95;;
11839;SDS011;5979;50.800;4.904;2023-08-06T05:16:52;0.93;;;0.93;;
11839;SDS011;5979;50.800;4.904;2023-08-06T05:19:17;1.48;;;0.88;;
11839;SDS011;5979;50.800;4.904;2023-08-06T05:21:43;1.45;;;0.85;;
11839;SDS011;5979;50.800;4.904;2023-08-06T05:24:08;1.10;;;1.00;;
11839;SDS011;5979;50.800;4.904;2023-08-06T05:26:34;0.60;;;0.60;;
11839;SDS011;5979;50.800;4.904;2023-08-06T05:29:00;1.25;;;0.60;;
11839;SDS011;5979;50.800;4.904;2023-08-06T05:31:26;0.93;;;0.93;;
11839;SDS011;5979;50.800;4.904;2023-08-06T05:33:53;2.40;;;1.15;;
11839;SDS011;5979;50.800;4.904;2023-08-06T05:36:19;1.50;;;1.50;;
11839;SDS011;5979;50.800;4.904;2023-08-06T05:38:46;1.83;;;1.73;;
11839;SDS011;5979;50.800;4.904;2023-08-06T05:41:11;4.82;;;2.90;;
11839;SDS011;5979;50.800;4.904;2023-08-06T05:43:37;3.83;;;2.97;;
11839;SDS011;5979;50.800;4.904;2023-08-06T05:46:03;3.65;;;3.35;;
11839;SDS011;5979;50.800;4.904;2023-08-06T05:48:29;4.63;;;4.28;;
11839;SDS011;5979;50.800;4.904;2023-08-06T05:50:54;6.10;;;5.60;;
11839;SDS011;5979;50.800;4.904;2023-08-06T05:53:20;6.32;;;5.72;;
11839;SDS011;5979;50.800;4.904;2023-08-06T05:55:47;6.60;;;6.00;;
11839;SDS011;5979;50.800;4.904;2023-08-06T05:58:12;7.55;;;6.72;;
11839;SDS011;5979;50.800;4.904;2023-08-06T06:00:38;8.65;;;6.63;;
11839;SDS011;5979;50.800;4.904;2023-08-06T06:03:04;6.30;;;5.65;;
11839;SDS011;5979;50.800;4.904;2023-08-06T06:05:29;7.82;;;5.60;;
11839;SDS011;5979;50.800;4.904;2023-08-06T06:07:55;5.55;;;4.78;;
11839;SDS011;5979;50.800;4.904;2023-08-06T06:10:21;6.68;;;4.15;;
11839;SDS011;5979;50.800;4.904;2023-08-06T06:12:46;4.85;;;4.03;;
11839;SDS011;5979;50.800;4.904;2023-08-06T06:15:12;3.53;;;3.33;;
11839;SDS011;5979;50.800;4.904;2023-08-06T06:17:38;4.40;;;2.80;;
11839;SDS011;5979;50.800;4.904;2023-08-06T06:20:03;3.95;;;2.88;;
11839;SDS011;5979;50.800;4.904;2023-08-06T06:22:30;3.22;;;2.92;;
11839;SDS011;5979;50.800;4.904;2023-08-06T06:24:56;5.03;;;2.95;;
11839;SDS011;5979;50.800;4.904;2023-08-06T06:27:21;2.97;;;2.53;;
11839;SDS011;5979;50.800;4.904;2023-08-06T06:29:47;3.75;;;2.83;;
11839;SDS011;5979;50.800;4.904;2023-08-06T06:32:13;4.80;;;2.53;;
11839;SDS011;5979;50.800;4.904;2023-08-06T06:34:38;3.88;;;2.80;;
11839;SDS011;5979;50.800;4.904;2023-08-06T06:37:04;7.65;;;2.85;;
11839;SDS011;5979;50.800;4.904;2023-08-06T06:39:30;7.93;;;3.30;;
11839;SDS011;5979;50.800;4.904;2023-08-06T06:41:56;4.38;;;2.58;;
11839;SDS011;5979;50.800;4.904;2023-08-06T06:44:21;2.85;;;2.60;;
11839;SDS011;5979;50.800;4.904;2023-08-06T06:46:47;3.65;;;2.60;;
11839;SDS011;5979;50.800;4.904;2023-08-06T06:49:13;5.93;;;2.85;;
11839;SDS011;5979;50.800;4.904;2023-08-06T06:51:38;3.95;;;3.20;;
11839;SDS011;5979;50.800;4.904;2023-08-06T06:54:04;6.25;;;2.80;;
11839;SDS011;5979;50.800;4.904;2023-08-06T06:56:30;6.05;;;2.92;;
11839;SDS011;5979;50.800;4.904;2023-08-06T06:58:55;5.40;;;3.05;;
11839;SDS011;5979;50.800;4.904;2023-08-06T07:01:21;4.50;;;2.83;;
11839;SDS011;5979;50.800;4.904;2023-08-06T07:03:47;4.05;;;2.58;;
11839;SDS011;5979;50.800;4.904;2023-08-06T07:06:12;4.13;;;3.15;;
11839;SDS011;5979;50.800;4.904;2023-08-06T07:08:38;5.43;;;2.72;;
11839;SDS011;5979;50.800;4.904;2023-08-06T07:11:04;6.97;;;3.15;;
11839;SDS011;5979;50.800;4.904;2023-08-06T07:13:31;5.40;;;2.95;;
11839;SDS011;5979;50.800;4.904;2023-08-06T07:15:57;5.15;;;2.95;;
11839;SDS011;5979;50.800;4.904;2023-08-06T07:18:23;6.97;;;3.40;;
11839;SDS011;5979;50.800;4.904;2023-08-06T07:20:53;7.43;;;2.50;;
11839;SDS011;5979;50.800;4.904;2023-08-06T07:23:20;3.95;;;3.33;;
11839;SDS011;5979;50.800;4.904;2023-08-06T07:25:47;5.78;;;3.40;;
11839;SDS011;5979;50.800;4.904;2023-08-06T07:28:13;5.13;;;2.92;;
11839;SDS011;5979;50.800;4.904;2023-08-06T07:30:39;5.35;;;2.97;;
11839;SDS011;5979;50.800;4.904;2023-08-06T07:33:06;4.18;;;2.67;;
11839;SDS011;5979;50.800;4.904;2023-08-06T07:35:31;5.00;;;3.40;;
11839;SDS011;5979;50.800;4.904;2023-08-06T07:37:57;5.32;;;3.60;;
11839;SDS011;5979;50.800;4.904;2023-08-06T07:40:23;5.65;;;2.90;;
11839;SDS011;5979;50.800;4.904;2023-08-06T07:42:49;7.63;;;3.38;;
11839;SDS011;5979;50.800;4.904;2023-08-06T07:45:15;4.53;;;3.30;;
11839;SDS011;5979;50.800;4.904;2023-08-06T07:47:40;4.40;;;3.00;;
11839;SDS011;5979;50.800;4.904;2023-08-06T07:50:07;6.45;;;3.60;;
11839;SDS011;5979;50.800;4.904;2023-08-06T07:52:33;5.93;;;3.38;;
11839;SDS011;5979;50.800;4.904;2023-08-06T07:54:59;4.25;;;2.78;;
11839;SDS011;5979;50.800;4.904;2023-08-06T07:57:26;3.90;;;2.75;;
11839;SDS011;5979;50.800;4.904;2023-08-06T07:59:52;5.88;;;3.13;;
11839;SDS011;5979;50.800;4.904;2023-08-06T08:02:19;6.75;;;2.70;;
11839;SDS011;5979;50.800;4.904;2023-08-06T08:04:44;5.35;;;3.70;;
11839;SDS011;5979;50.800;4.904;2023-08-06T08:07:12;4.53;;;2.65;;
11839;SDS011;5979;50.800;4.904;2023-08-06T08:09:38;4.55;;;2.63;;
11839;SDS011;5979;50.800;4.904;2023-08-06T08:12:04;5.95;;;2.05;;
11839;SDS011;5979;50.800;4.904;2023-08-06T08:14:30;4.00;;;2.38;;
11839;SDS011;5979;50.800;4.904;2023-08-06T08:17:00;4.85;;;2.10;;
11839;SDS011;5979;50.800;4.904;2023-08-06T08:19:27;4.18;;;1.70;;
11839;SDS011;5979;50.800;4.904;2023-08-06T08:21:53;5.75;;;2.20;;
11839;SDS011;5979;50.800;4.904;2023-08-06T08:24:19;4.88;;;1.85;;
11839;SDS011;5979;50.800;4.904;2023-08-06T08:26:48;4.40;;;1.85;;
11839;SDS011;5979;50.800;4.904;2023-08-06T08:29:14;7.18;;;2.13;;
11839;SDS011;5979;50.800;4.904;2023-08-06T08:31:40;7.30;;;1.83;;
11839;SDS011;5979;50.800;4.904;2023-08-06T08:34:06;3.88;;;1.70;;
11839;SDS011;5979;50.800;4.904;2023-08-06T08:36:31;3.20;;;1.70;;
11839;SDS011;5979;50.800;4.904;2023-08-06T08:38:57;4.40;;;1.90;;
11839;SDS011;5979;50.800;4.904;2023-08-06T08:41:23;6.25;;;1.88;;
11839;SDS011;5979;50.800;4.904;2023-08-06T08:43:49;5.18;;;2.13;;
11839;SDS011;5979;50.800;4.904;2023-08-06T08:46:17;5.22;;;2.05;;
11839;SDS011;5979;50.800;4.904;2023-08-06T08:48:43;4.22;;;2.30;;
11839;SDS011;5979;50.800;4.904;2023-08-06T08:51:10;3.30;;;1.95;;
11839;SDS011;5979;50.800;4.904;2023-08-06T08:53:37;5.88;;;1.90;;
11839;SDS011;5979;50.800;4.904;2023-08-06T08:56:04;2.83;;;1.77;;
11839;SDS011;5979;50.800;4.904;2023-08-06T08:58:30;5.57;;;2.38;;
11839;SDS011;5979;50.800;4.904;2023-08-06T09:00:56;4.28;;;2.25;;
11839;SDS011;5979;50.800;4.904;2023-08-06T09:03:23;6.25;;;2.08;;
11839;SDS011;5979;50.800;4.904;2023-08-06T09:05:51;6.38;;;2.05;;
11839;SDS011;5979;50.800;4.904;2023-08-06T09:08:21;2.17;;;1.70;;
11839;SDS011;5979;50.800;4.904;2023-08-06T09:10:52;2.67;;;1.70;;
11839;SDS011;5979;50.800;4.904;2023-08-06T09:13:18;3.90;;;1.60;;
11839;SDS011;5979;50.800;4.904;2023-08-06T09:15:46;3.63;;;1.95;;
11839;SDS011;5979;50.800;4.904;2023-08-06T09:18:11;3.17;;;1.88;;
11839;SDS011;5979;50.800;4.904;2023-08-06T09:20:40;2.40;;;1.70;;
11839;SDS011;5979;50.800;4.904;2023-08-06T09:23:09;2.85;;;1.55;;
11839;SDS011;5979;50.800;4.904;2023-08-06T09:25:39;4.65;;;1.50;;
11839;SDS011;5979;50.800;4.904;2023-08-06T09:28:05;4.80;;;2.60;;
11839;SDS011;5979;50.800;4.904;2023-08-06T09:30:32;2.90;;;1.90;;
11839;SDS011;5979;50.800;4.904;2023-08-06T09:33:01;4.05;;;1.88;;
11839;SDS011;5979;50.800;4.904;2023-08-06T09:35:30;3.75;;;1.63;;
11839;SDS011;5979;50.800;4.904;2023-08-06T09:38:09;3.63;;;2.03;;
11839;SDS011;5979;50.800;4.904;2023-08-06T09:40:36;4.35;;;1.85;;
11839;SDS011;5979;50.800;4.904;2023-08-06T09:43:03;3.70;;;1.65;;
11839;SDS011;5979;50.800;4.904;2023-08-06T09:45:36;6.13;;;1.73;;
11839;SDS011;5979;50.800;4.904;2023-08-06T09:48:06;5.05;;;1.83;;
11839;SDS011;5979;50.800;4.904;2023-08-06T09:50:34;2.92;;;1.83;;
11839;SDS011;5979;50.800;4.904;2023-08-06T09:53:02;3.67;;;1.83;;
11839;SDS011;5979;50.800;4.904;2023-08-06T09:55:29;4.68;;;1.60;;
11839;SDS011;5979;50.800;4.904;2023-08-06T09:57:55;2.72;;;1.70;;
11839;SDS011;5979;50.800;4.904;2023-08-06T10:00:21;4.03;;;1.75;;
11839;SDS011;5979;50.800;4.904;2023-08-06T10:02:51;3.35;;;1.70;;
11839;SDS011;5979;50.800;4.904;2023-08-06T10:05:20;4.65;;;1.40;;
11839;SDS011;5979;50.800;4.904;2023-08-06T10:07:47;2.65;;;1.60;;
11839;SDS011;5979;50.800;4.904;2023-08-06T10:10:15;4.05;;;1.30;;
11839;SDS011;5979;50.800;4.904;2023-08-06T10:12:43;2.25;;;1.35;;
11839;SDS011;5979;50.800;4.904;2023-08-06T10:15:16;5.53;;;1.90;;
11839;SDS011;5979;50.800;4.904;2023-08-06T10:17:47;3.45;;;1.80;;
11839;SDS011;5979;50.800;4.904;2023-08-06T10:20:16;2.20;;;1.42;;
11839;SDS011;5979;50.800;4.904;2023-08-06T10:22:42;2.75;;;1.38;;
11839;SDS011;5979;50.800;4.904;2023-08-06T10:25:13;2.05;;;1.10;;
11839;SDS011;5979;50.800;4.904;2023-08-06T10:32:50;2.63;;;1.02;;
11839;SDS011;5979;50.800;4.904;2023-08-06T10:38:22;4.63;;;1.35;;
11839;SDS011;5979;50.800;4.904;2023-08-06T10:43:29;3.10;;;1.60;;
11839;SDS011;5979;50.800;4.904;2023-08-06T10:46:00;3.70;;;1.50;;
11839;SDS011;5979;50.800;4.904;2023-08-06T10:48:37;2.88;;;1.73;;
11839;SDS011;5979;50.800;4.904;2023-08-06T10:51:09;2.40;;;1.50;;
11839;SDS011;5979;50.800;4.904;2023-08-06T10:53:35;3.40;;;1.40;;
11839;SDS011;5979;50.800;4.904;2023-08-06T10:56:02;1.55;;;1.42;;
11839;SDS011;5979;50.800;4.904;2023-08-06T10:58:40;4.40;;;1.42;;
11839;SDS011;5979;50.800;4.904;2023-08-06T11:01:07;1.77;;;1.58;;
11839;SDS011;5979;50.800;4.904;2023-08-06T11:03:33;2.30;;;1.77;;
11839;SDS011;5979;50.800;4.904;2023-08-06T11:05:59;3.78;;;1.90;;
11839;SDS011;5979;50.800;4.904;2023-08-06T11:08:26;6.95;;;2.10;;
11839;SDS011;5979;50.800;4.904;2023-08-06T11:10:52;2.88;;;1.90;;
11839;SDS011;5979;50.800;4.904;2023-08-06T11:13:19;2.38;;;1.58;;
11839;SDS011;5979;50.800;4.904;2023-08-06T11:15:45;6.57;;;1.90;;
11839;SDS011;5979;50.800;4.904;2023-08-06T11:18:11;4.45;;;1.98;;
11839;SDS011;5979;50.800;4.904;2023-08-06T11:20:38;3.80;;;1.70;;
11839;SDS011;5979;50.800;4.904;2023-08-06T11:23:04;3.25;;;1.58;;
11839;SDS011;5979;50.800;4.904;2023-08-06T11:25:30;3.45;;;1.90;;
11839;SDS011;5979;50.800;4.904;2023-08-06T11:28:01;5.25;;;2.05;;
11839;SDS011;5979;50.800;4.904;2023-08-06T11:30:26;3.00;;;1.63;;
11839;SDS011;5979;50.800;4.904;2023-08-06T11:32:52;5.13;;;2.00;;
11839;SDS011;5979;50.800;4.904;2023-08-06T11:35:17;5.45;;;1.77;;
11839;SDS011;5979;50.800;4.904;2023-08-06T11:37:44;2.92;;;1.70;;
11839;SDS011;5979;50.800;4.904;2023-08-06T11:40:11;1.77;;;1.65;;
11839;SDS011;5979;50.800;4.904;2023-08-06T11:42:37;2.75;;;1.75;;
11839;SDS011;5979;50.800;4.904;2023-08-06T11:45:03;3.83;;;1.75;;
11839;SDS011;5979;50.800;4.904;2023-08-06T11:47:29;2.33;;;1.70;;
11839;SDS011;5979;50.800;4.904;2023-08-06T11:49:55;5.93;;;2.10;;
11839;SDS011;5979;50.800;4.904;2023-08-06T11:52:25;4.43;;;2.20;;
11839;SDS011;5979;50.800;4.904;2023-08-06T11:55:04;5.05;;;2.67;;
11839;SDS011;5979;50.800;4.904;2023-08-06T11:57:37;5.88;;;2.03;;
11839;SDS011;5979;50.800;4.904;2023-08-06T12:00:05;5.50;;;2.05;;
11839;SDS011;5979;50.800;4.904;2023-08-06T12:02:35;5.50;;;1.80;;
11839;SDS011;5979;50.800;4.904;2023-08-06T12:07:46;2.88;;;1.67;;
11839;SDS011;5979;50.800;4.904;2023-08-06T12:10:13;2.83;;;1.90;;
11839;SDS011;5979;50.800;4.904;2023-08-06T12:12:40;1.63;;;1.52;;
11839;SDS011;5979;50.800;4.904;2023-08-06T12:15:06;1.65;;;1.55;;
11839;SDS011;5979;50.800;4.904;2023-08-06T12:17:33;2.72;;;1.40;;
11839;SDS011;5979;50.800;4.904;2023-08-06T12:19:59;3.38;;;1.48;;
11839;SDS011;5979;50.800;4.904;2023-08-06T12:22:25;1.88;;;1.52;;
11839;SDS011;5979;50.800;4.904;2023-08-06T12:24:51;2.80;;;1.50;;
11839;SDS011;5979;50.800;4.904;2023-08-06T12:27:17;3.55;;;1.88;;
11839;SDS011;5979;50.800;4.904;2023-08-06T12:29:49;3.88;;;1.80;;
11839;SDS011;5979;50.800;4.904;2023-08-06T12:32:15;2.22;;;1.60;;
11839;SDS011;5979;50.800;4.904;2023-08-06T12:34:41;3.03;;;1.50;;
11839;SDS011;5979;50.800;4.904;2023-08-06T12:37:07;3.00;;;1.48;;
11839;SDS011;5979;50.800;4.904;2023-08-06T12:39:36;4.10;;;1.67;;
11839;SDS011;5979;50.800;4.904;2023-08-06T12:42:03;5.80;;;1.73;;
11839;SDS011;5979;50.800;4.904;2023-08-06T12:44:30;3.35;;;1.50;;
11839;SDS011;5979;50.800;4.904;2023-08-06T12:46:56;5.82;;;1.73;;
11839;SDS011;5979;50.800;4.904;2023-08-06T12:49:22;4.10;;;1.67;;
11839;SDS011;5979;50.800;4.904;2023-08-06T12:51:51;3.33;;;1.83;;
11839;SDS011;5979;50.800;4.904;2023-08-06T12:54:17;5.97;;;1.88;;
11839;SDS011;5979;50.800;4.904;2023-08-06T12:56:44;4.30;;;1.90;;
11839;SDS011;5979;50.800;4.904;2023-08-06T12:59:10;4.63;;;1.80;;
11839;SDS011;5979;50.800;4.904;2023-08-06T13:01:39;2.92;;;1.98;;
11839;SDS011;5979;50.800;4.904;2023-08-06T13:04:05;3.90;;;2.28;;
11839;SDS011;5979;50.800;4.904;2023-08-06T13:06:31;4.07;;;1.90;;
11839;SDS011;5979;50.800;4.904;2023-08-06T13:09:02;3.40;;;1.60;;
11839;SDS011;5979;50.800;4.904;2023-08-06T13:11:28;4.25;;;2.20;;
11839;SDS011;5979;50.800;4.904;2023-08-06T13:13:55;3.97;;;1.77;;
11839;SDS011;5979;50.800;4.904;2023-08-06T13:16:21;5.38;;;2.08;;
11839;SDS011;5979;50.800;4.904;2023-08-06T13:18:47;6.03;;;1.80;;
11839;SDS011;5979;50.800;4.904;2023-08-06T13:21:13;6.13;;;1.92;;
11839;SDS011;5979;50.800;4.904;2023-08-06T13:23:38;5.40;;;2.05;;
11839;SDS011;5979;50.800;4.904;2023-08-06T13:26:04;4.18;;;1.73;;
11839;SDS011;5979;50.800;4.904;2023-08-06T13:28:30;4.75;;;1.67;;
11839;SDS011;5979;50.800;4.904;2023-08-06T13:30:55;4.03;;;1.83;;
11839;SDS011;5979;50.800;4.904;2023-08-06T13:33:21;2.58;;;1.85;;
11839;SDS011;5979;50.800;4.904;2023-08-06T13:35:46;3.13;;;1.67;;
11839;SDS011;5979;50.800;4.904;2023-08-06T13:38:12;10.05;;;1.92;;
11839;SDS011;5979;50.800;4.904;2023-08-06T13:40:38;1.77;;;1.50;;
11839;SDS011;5979;50.800;4.904;2023-08-06T13:43:03;2.55;;;1.60;;
11839;SDS011;5979;50.800;4.904;2023-08-06T13:45:29;3.67;;;1.80;;
11839;SDS011;5979;50.800;4.904;2023-08-06T13:47:56;5.32;;;1.95;;
11839;SDS011;5979;50.800;4.904;2023-08-06T13:50:22;3.88;;;1.90;;
11839;SDS011;5979;50.800;4.904;2023-08-06T13:52:50;3.45;;;2.10;;
11839;SDS011;5979;50.800;4.904;2023-08-06T13:55:18;2.80;;;1.45;;
11839;SDS011;5979;50.800;4.904;2023-08-06T13:57:43;6.88;;;2.00;;
11839;SDS011;5979;50.800;4.904;2023-08-06T14:00:09;3.10;;;1.52;;
11839;SDS011;5979;50.800;4.904;2023-08-06T14:02:35;2.90;;;1.65;;
11839;SDS011;5979;50.800;4.904;2023-08-06T14:05:01;4.22;;;1.73;;
11839;SDS011;5979;50.800;4.904;2023-08-06T14:07:27;4.68;;;1.45;;
11839;SDS011;5979;50.800;4.904;2023-08-06T14:09:52;6.40;;;1.70;;
11839;SDS011;5979;50.800;4.904;2023-08-06T14:12:18;5.18;;;1.63;;
11839;SDS011;5979;50.800;4.904;2023-08-06T14:14:44;2.00;;;1.58;;
11839;SDS011;5979;50.800;4.904;2023-08-06T14:17:09;4.00;;;2.00;;
11839;SDS011;5979;50.800;4.904;2023-08-06T14:19:35;2.78;;;1.38;;
11839;SDS011;5979;50.800;4.904;2023-08-06T14:22:01;5.53;;;1.50;;
11839;SDS011;5979;50.800;4.904;2023-08-06T14:24:26;4.03;;;1.65;;
11839;SDS011;5979;50.800;4.904;2023-08-06T14:26:52;1.77;;;1.55;;
11839;SDS011;5979;50.800;4.904;2023-08-06T14:29:18;1.60;;;1.50;;
11839;SDS011;5979;50.800;4.904;2023-08-06T14:31:43;4.28;;;1.70;;
11839;SDS011;5979;50.800;4.904;2023-08-06T14:34:09;4.72;;;1.75;;
11839;SDS011;5979;50.800;4.904;2023-08-06T14:36:35;3.33;;;1.73;;
11839;SDS011;5979;50.800;4.904;2023-08-06T14:39:00;4.82;;;1.80;;
11839;SDS011;5979;50.800;4.904;2023-08-06T14:41:26;6.20;;;1.83;;
11839;SDS011;5979;50.800;4.904;2023-08-06T14:43:52;3.15;;;1.75;;
11839;SDS011;5979;50.800;4.904;2023-08-06T14:46:18;3.90;;;1.77;;
11839;SDS011;5979;50.800;4.904;2023-08-06T14:48:44;3.97;;;2.13;;
11839;SDS011;5979;50.800;4.904;2023-08-06T14:51:10;5.32;;;2.17;;
11839;SDS011;5979;50.800;4.904;2023-08-06T14:53:35;4.10;;;1.80;;
11839;SDS011;5979;50.800;4.904;2023-08-06T14:56:01;7.45;;;2.28;;
11839;SDS011;5979;50.800;4.904;2023-08-06T14:58:27;2.78;;;1.77;;
11839;SDS011;5979;50.800;4.904;2023-08-06T15:00:52;5.40;;;2.03;;
11839;SDS011;5979;50.800;4.904;2023-08-06T15:03:18;4.43;;;2.25;;
11839;SDS011;5979;50.800;4.904;2023-08-06T15:05:46;6.25;;;2.38;;
11839;SDS011;5979;50.800;4.904;2023-08-06T15:08:12;6.82;;;2.17;;
11839;SDS011;5979;50.800;4.904;2023-08-06T15:10:38;5.45;;;2.17;;
11839;SDS011;5979;50.800;4.904;2023-08-06T15:13:03;4.72;;;1.80;;